createdAt,value
2018-05-02T00:01:13.951Z,1.00
2018-05-02T00:03:41.485Z,0.90
2018-05-02T00:06:09.006Z,0.97
2018-05-02T00:08:37.288Z,0.90
2018-05-02T00:11:05.605Z,1.00
2018-05-02T00:13:33.142Z,1.00
2018-05-02T00:16:00.719Z,1.10
2018-05-02T00:18:28.254Z,0.90
2018-05-02T00:20:56.525Z,0.87
2018-05-02T00:23:24.922Z,1.00
2018-05-02T00:25:53.213Z,0.87
2018-05-02T00:28:21.486Z,0.80
2018-05-02T00:30:49.761Z,0.87
2018-05-02T00:33:18.053Z,1.00
2018-05-02T00:35:46.349Z,0.90
2018-05-02T00:38:13.861Z,0.80
2018-05-02T00:40:41.378Z,0.90
2018-05-02T00:43:08.890Z,0.90
2018-05-02T00:45:36.402Z,0.90
2018-05-02T00:48:03.970Z,1.00
2018-05-02T00:50:31.478Z,0.90
2018-05-02T00:52:59.002Z,0.90
2018-05-02T00:55:26.533Z,1.00
2018-05-02T00:57:54.848Z,0.87
2018-05-02T01:00:22.359Z,0.97
2018-05-02T01:02:49.892Z,0.90
2018-05-02T01:05:17.397Z,0.80
2018-05-02T01:07:45.676Z,0.90
2018-05-02T01:10:13.989Z,0.80
2018-05-02T01:12:41.506Z,0.83
2018-05-02T01:15:09.018Z,0.70
2018-05-02T01:17:36.552Z,0.90
2018-05-02T01:20:04.833Z,0.70
2018-05-02T01:22:32.357Z,0.80
2018-05-02T01:24:59.881Z,0.80
2018-05-02T01:27:28.155Z,0.80
2018-05-02T01:29:56.465Z,0.80
2018-05-02T01:32:23.989Z,0.80
2018-05-02T01:34:51.586Z,0.73
2018-05-02T01:37:19.118Z,0.90
2018-05-02T01:39:46.658Z,0.80
2018-05-02T01:42:14.186Z,0.70
2018-05-02T01:44:41.689Z,0.80
2018-05-02T01:47:09.241Z,0.80
2018-05-02T01:49:36.768Z,0.80
2018-05-02T01:52:05.038Z,0.80
2018-05-02T01:54:33.430Z,0.70
2018-05-02T01:57:01.006Z,0.90
2018-05-02T01:59:29.365Z,0.80
2018-05-02T02:01:57.665Z,0.90
2018-05-02T02:04:25.181Z,0.80
2018-05-02T02:06:52.712Z,0.90
2018-05-02T02:09:20.304Z,0.90
2018-05-02T02:11:47.806Z,0.80
2018-05-02T02:14:16.078Z,0.87
2018-05-02T02:16:44.393Z,0.80
2018-05-02T02:19:11.910Z,1.00
2018-05-02T02:21:39.505Z,0.90
2018-05-02T02:24:07.030Z,0.90
2018-05-02T02:26:34.560Z,1.00
2018-05-02T02:29:02.077Z,0.80
2018-05-02T02:31:29.618Z,0.80
2018-05-02T02:33:57.136Z,0.90
2018-05-02T02:36:24.657Z,0.87
2018-05-02T02:38:52.959Z,1.00
2018-05-02T02:41:21.238Z,0.97
2018-05-02T02:43:49.518Z,0.80
2018-05-02T02:46:17.808Z,1.00
2018-05-02T02:48:46.118Z,0.93
2018-05-02T02:51:13.629Z,0.80
2018-05-02T02:53:41.178Z,0.80
2018-05-02T02:56:08.700Z,0.97
2018-05-02T02:58:36.219Z,0.77
2018-05-02T03:01:03.812Z,0.90
2018-05-02T03:03:32.093Z,0.70
2018-05-02T03:06:00.370Z,1.10
2018-05-02T03:08:28.785Z,0.90
2018-05-02T03:10:56.293Z,0.90
2018-05-02T03:13:24.832Z,0.93
2018-05-02T03:15:52.381Z,1.00
2018-05-02T03:18:19.902Z,0.90
2018-05-02T03:20:47.405Z,0.90
2018-05-02T03:23:15.707Z,0.90
2018-05-02T03:25:43.226Z,0.70
2018-05-02T03:28:11.505Z,0.80
2018-05-02T03:30:39.050Z,0.90
2018-05-02T03:33:06.554Z,1.13
2018-05-02T03:35:34.829Z,0.90
2018-05-02T03:38:03.144Z,1.00
2018-05-02T03:40:30.660Z,0.90
2018-05-02T03:42:58.944Z,0.93
2018-05-02T03:45:26.473Z,0.80
2018-05-02T03:47:53.993Z,0.93
2018-05-02T03:50:22.267Z,0.90
2018-05-02T03:52:50.609Z,0.80
2018-05-02T03:55:18.150Z,1.10
2018-05-02T03:57:45.704Z,0.90
2018-05-02T04:00:25.062Z,1.07
2018-05-02T04:03:04.841Z,0.90
2018-05-02T04:05:45.074Z,1.00
2018-05-02T04:08:12.595Z,1.00
2018-05-02T04:10:40.106Z,0.80
2018-05-02T04:13:08.405Z,1.00
2018-05-02T04:15:35.925Z,1.00
2018-05-02T04:18:03.443Z,1.00
2018-05-02T04:20:31.752Z,0.90
2018-05-02T04:22:59.270Z,1.10
2018-05-02T04:25:26.883Z,1.00
2018-05-02T04:27:54.426Z,0.90
2018-05-02T04:30:22.007Z,1.00
2018-05-02T04:32:49.521Z,1.10
2018-05-02T04:35:17.051Z,1.03
2018-05-02T04:37:44.572Z,1.17
2018-05-02T04:40:12.856Z,1.07
2018-05-02T04:42:41.154Z,1.00
2018-05-02T04:45:08.699Z,1.00
2018-05-02T04:47:37.217Z,0.90
2018-05-02T04:50:04.758Z,1.10
2018-05-02T04:52:33.062Z,1.10
2018-05-02T04:55:00.626Z,1.13
2018-05-02T04:57:28.166Z,1.07
2018-05-02T04:59:56.450Z,1.20
2018-05-02T05:02:24.721Z,1.20
2018-05-02T05:04:53.049Z,0.97
2018-05-02T05:07:20.563Z,1.10
2018-05-02T05:09:48.839Z,1.10
2018-05-02T05:12:17.177Z,1.13
2018-05-02T05:14:44.670Z,1.00
2018-05-02T05:17:12.277Z,0.97
2018-05-02T05:19:39.819Z,1.10
2018-05-02T05:22:07.321Z,1.10
2018-05-02T05:24:34.841Z,1.10
2018-05-02T05:27:02.369Z,1.13
2018-05-02T05:29:29.885Z,1.10
2018-05-02T05:31:58.162Z,1.23
2018-05-02T05:34:26.487Z,1.10
2018-05-02T05:36:54.002Z,1.17
2018-05-02T05:39:21.507Z,1.40
2018-05-02T05:41:49.029Z,1.10
2018-05-02T05:44:17.354Z,1.10
2018-05-02T05:46:44.860Z,1.10
2018-05-02T05:49:12.390Z,1.07
2018-05-02T05:51:39.899Z,1.30
2018-05-02T05:54:07.518Z,1.20
2018-05-02T05:56:35.085Z,1.20
2018-05-02T05:59:02.622Z,1.10
2018-05-02T06:01:30.162Z,1.20
2018-05-02T06:03:57.689Z,1.10
2018-05-02T06:06:25.433Z,1.00
2018-05-02T06:08:52.944Z,1.20
2018-05-02T06:11:20.477Z,1.07
2018-05-02T06:13:47.994Z,1.17
2018-05-02T06:16:16.384Z,1.30
2018-05-02T06:18:44.025Z,1.30
2018-05-02T06:21:11.469Z,1.20
2018-05-02T06:23:39.015Z,1.20
2018-05-02T06:26:06.655Z,1.07
2018-05-02T06:28:34.131Z,1.20
2018-05-02T06:31:01.647Z,1.20
2018-05-02T06:33:29.185Z,1.40
2018-05-02T06:35:56.706Z,1.23
2018-05-02T06:38:24.985Z,1.27
2018-05-02T06:40:53.279Z,1.20
2018-05-02T06:43:20.813Z,0.97
2018-05-02T06:45:49.106Z,1.20
2018-05-02T06:48:17.408Z,1.20
2018-05-02T06:50:44.942Z,1.10
2018-05-02T06:53:12.689Z,1.10
2018-05-02T06:55:41.019Z,1.40
2018-05-02T06:58:08.605Z,1.07
2018-05-02T07:00:36.339Z,1.20
2018-05-02T07:03:04.646Z,1.23
2018-05-02T07:05:32.313Z,1.20
2018-05-02T07:08:00.130Z,1.27
2018-05-02T07:10:27.669Z,1.10
2018-05-02T07:12:55.251Z,1.07
2018-05-02T07:15:23.622Z,1.20
2018-05-02T07:17:51.159Z,0.97
2018-05-02T07:20:18.857Z,1.10
2018-05-02T07:22:46.419Z,1.10
2018-05-02T07:25:14.494Z,1.20
2018-05-02T07:27:42.114Z,1.50
2018-05-02T07:30:09.802Z,1.00
2018-05-02T07:32:37.577Z,0.90
2018-05-02T07:35:05.089Z,1.00
2018-05-02T07:37:32.615Z,1.10
2018-05-02T07:40:00.157Z,1.00
2018-05-02T07:42:28.760Z,1.08
2018-05-02T07:44:56.352Z,0.80
2018-05-02T07:47:23.901Z,1.00
2018-05-02T07:49:51.621Z,1.00
2018-05-02T07:52:20.863Z,1.20
2018-05-02T07:54:50.325Z,1.00
2018-05-02T07:57:22.623Z,0.90
2018-05-02T07:59:50.210Z,1.02
2018-05-02T08:02:17.734Z,1.02
2018-05-02T08:04:46.009Z,0.85
2018-05-02T08:07:14.309Z,0.90
2018-05-02T08:09:42.758Z,0.90
2018-05-02T08:12:10.273Z,1.00
2018-05-02T08:14:37.802Z,1.02
2018-05-02T08:17:05.401Z,0.80
2018-05-02T08:19:33.687Z,0.85
2018-05-02T08:22:01.218Z,0.90
2018-05-02T08:24:29.511Z,1.00
2018-05-02T08:26:57.853Z,0.90
2018-05-02T08:29:25.386Z,1.02
2018-05-02T08:31:52.906Z,0.90
2018-05-02T08:34:21.190Z,1.30
2018-05-02T08:36:49.492Z,0.90
2018-05-02T08:39:17.782Z,0.90
2018-05-02T08:41:45.295Z,1.00
2018-05-02T08:44:14.326Z,0.98
2018-05-02T08:46:42.606Z,0.80
2018-05-02T08:49:10.897Z,0.90
2018-05-02T08:51:38.425Z,1.00
2018-05-02T08:54:06.745Z,0.80
2018-05-02T08:56:34.272Z,1.10
2018-05-02T08:59:01.875Z,0.95
2018-05-02T09:01:29.397Z,1.20
2018-05-02T09:03:56.915Z,1.23
2018-05-02T09:06:24.441Z,1.30
2018-05-02T09:08:52.765Z,1.40
2018-05-02T09:11:21.195Z,1.30
2018-05-02T09:13:48.745Z,1.08
2018-05-02T09:16:16.261Z,0.98
2018-05-02T09:18:43.781Z,1.30
2018-05-02T09:21:12.086Z,1.40
2018-05-02T09:23:40.377Z,1.37
2018-05-02T09:26:08.949Z,1.27
2018-05-02T09:28:37.989Z,1.00
2018-05-02T09:31:05.601Z,1.30
2018-05-02T09:33:33.885Z,1.50
2018-05-02T09:36:01.488Z,1.50
2018-05-02T09:38:29.007Z,1.20
2018-05-02T09:40:56.538Z,1.20
2018-05-02T09:43:24.089Z,1.40
2018-05-02T09:45:51.597Z,1.25
2018-05-02T09:48:19.117Z,1.25
2018-05-02T09:50:46.650Z,1.60
2018-05-02T09:53:14.921Z,1.48
2018-05-02T09:55:42.446Z,1.50
2018-05-02T09:58:10.060Z,1.20
2018-05-02T10:00:37.535Z,1.40
2018-05-02T10:03:05.866Z,1.20
2018-05-02T10:05:33.493Z,1.40
2018-05-02T10:08:01.771Z,1.60
2018-05-02T10:10:29.306Z,1.50
2018-05-02T10:12:56.886Z,1.60
2018-05-02T10:15:25.165Z,1.70
2018-05-02T10:17:53.442Z,1.58
2018-05-02T10:20:21.744Z,1.62
2018-05-02T10:22:49.258Z,1.50
2018-05-02T10:25:16.900Z,1.50
2018-05-02T10:27:44.442Z,1.73
2018-05-02T10:30:11.949Z,1.80
2018-05-02T10:32:39.482Z,2.00
2018-05-02T10:35:07.010Z,1.87
2018-05-02T10:37:35.289Z,1.83
2018-05-02T10:40:03.563Z,1.80
2018-05-02T10:42:31.103Z,1.70
2018-05-02T10:44:58.626Z,1.87
2018-05-02T10:47:26.137Z,1.55
2018-05-02T10:49:53.681Z,1.77
2018-05-02T10:52:21.202Z,1.60
2018-05-02T10:54:49.495Z,1.70
2018-05-02T10:57:17.808Z,1.73
2018-05-02T10:59:45.317Z,1.40
2018-05-02T11:02:12.829Z,1.67
2018-05-02T11:04:40.390Z,1.75
2018-05-02T11:07:07.895Z,1.73
2018-05-02T11:09:35.406Z,1.62
2018-05-02T11:12:03.702Z,1.83
2018-05-02T11:14:31.297Z,1.77
2018-05-02T11:16:58.866Z,1.50
2018-05-02T11:19:26.406Z,1.60
2018-05-02T11:21:53.985Z,1.48
2018-05-02T11:24:21.501Z,1.65
2018-05-02T11:26:49.054Z,1.40
2018-05-02T11:29:17.330Z,1.80
2018-05-02T11:31:45.629Z,1.87
2018-05-02T11:34:13.321Z,1.90
2018-05-02T11:36:41.639Z,1.95
2018-05-02T11:39:09.161Z,1.65
2018-05-02T11:41:36.689Z,1.40
2018-05-02T11:44:04.970Z,1.75
2018-05-02T11:46:33.285Z,1.60
2018-05-02T11:49:00.830Z,1.85
2018-05-02T11:51:28.404Z,1.80
2018-05-02T11:53:55.935Z,2.12
2018-05-02T11:56:24.233Z,2.28
2018-05-02T11:58:52.509Z,1.92
2018-05-02T12:01:20.786Z,1.73
2018-05-02T12:03:49.190Z,1.83
2018-05-02T12:06:16.712Z,2.03
2018-05-02T12:08:44.217Z,2.15
2018-05-02T12:11:11.737Z,1.80
2018-05-02T12:13:39.297Z,2.00
2018-05-02T12:16:06.978Z,2.10
2018-05-02T12:18:34.542Z,2.35
2018-05-02T12:21:02.053Z,1.90
2018-05-02T12:23:29.565Z,2.12
2018-05-02T12:25:57.096Z,2.10
2018-05-02T12:28:24.605Z,1.90
2018-05-02T12:30:52.119Z,2.20
2018-05-02T12:33:19.652Z,2.05
2018-05-02T12:35:47.931Z,2.12
2018-05-02T12:38:16.207Z,1.83
2018-05-02T12:40:44.562Z,1.73
2018-05-02T12:43:12.038Z,2.08
2018-05-02T12:45:39.571Z,2.08
2018-05-02T12:48:07.103Z,1.60
2018-05-02T12:50:34.621Z,1.77
2018-05-02T12:53:02.137Z,2.30
2018-05-02T12:55:29.702Z,1.90
2018-05-02T12:57:57.209Z,2.15
2018-05-02T13:00:26.229Z,2.08
2018-05-02T13:02:54.529Z,1.95
2018-05-02T13:05:22.042Z,1.62
2018-05-02T13:07:49.545Z,2.10
2018-05-02T13:10:17.848Z,1.87
2018-05-02T13:12:45.374Z,1.40
2018-05-02T13:15:12.889Z,1.50
2018-05-02T13:17:40.545Z,1.90
2018-05-02T13:20:08.067Z,1.30
2018-05-02T13:22:37.081Z,1.60
2018-05-02T13:25:05.393Z,1.73
2018-05-02T13:27:32.916Z,1.48
2018-05-02T13:30:00.433Z,1.55
2018-05-02T13:32:28.005Z,1.50
2018-05-02T13:34:55.511Z,1.50
2018-05-02T13:37:23.017Z,1.45
2018-05-02T13:39:50.561Z,1.45
2018-05-02T13:42:18.086Z,1.62
2018-05-02T13:44:45.596Z,1.77
2018-05-02T13:47:13.125Z,1.55
2018-05-02T13:52:21.515Z,1.50
2018-05-02T13:54:49.065Z,1.60
2018-05-02T13:57:16.601Z,1.70
2018-05-02T13:59:44.922Z,1.58
2018-05-02T14:02:12.434Z,1.55
2018-05-02T14:04:40.037Z,1.40
2018-05-02T14:07:07.602Z,1.77
2018-05-02T14:09:35.109Z,1.40
2018-05-02T14:12:02.739Z,1.42
2018-05-02T14:14:31.672Z,1.67
2018-05-02T14:16:59.193Z,1.77
2018-05-02T14:19:26.914Z,1.70
2018-05-02T14:21:55.221Z,1.70
2018-05-02T14:24:23.538Z,1.58
2018-05-02T14:26:51.032Z,1.87
2018-05-02T14:29:18.555Z,1.23
2018-05-02T14:31:46.057Z,1.50
2018-05-02T14:34:13.561Z,1.60
2018-05-02T14:36:41.126Z,1.37
2018-05-02T14:39:09.401Z,1.30
2018-05-02T14:41:37.709Z,1.70
2018-05-02T14:44:05.264Z,1.45
2018-05-02T14:46:32.769Z,1.42
2018-05-02T14:49:00.280Z,1.60
2018-05-02T14:51:28.579Z,1.50
2018-05-02T14:53:56.140Z,1.52
2018-05-02T14:56:23.653Z,1.67
2018-05-02T14:58:51.181Z,1.45
2018-05-02T15:01:18.688Z,1.52
2018-05-02T15:03:46.199Z,1.35
2018-05-02T15:06:13.770Z,1.60
2018-05-02T15:08:41.312Z,1.40
2018-05-02T15:11:09.658Z,1.50
2018-05-02T15:13:37.206Z,1.40
2018-05-02T15:16:04.708Z,1.50
2018-05-02T15:18:32.981Z,1.60
2018-05-02T15:21:01.490Z,1.50
2018-05-02T15:23:29.766Z,1.50
2018-05-02T15:25:58.039Z,1.50
2018-05-02T15:28:26.342Z,1.50
2018-05-02T15:30:53.848Z,1.35
2018-05-02T15:33:21.359Z,1.40
2018-05-02T15:35:49.681Z,1.65
2018-05-02T15:38:17.258Z,1.50
2018-05-02T15:40:44.741Z,1.60
2018-05-02T15:43:12.281Z,1.85
2018-05-02T15:45:39.797Z,2.45
2018-05-02T15:48:08.092Z,1.48
2018-05-02T15:50:35.622Z,1.70
2018-05-02T15:53:03.129Z,1.60
2018-05-02T15:55:30.639Z,1.42
2018-05-02T15:57:58.195Z,1.60
2018-05-02T16:00:25.711Z,1.27
2018-05-02T16:02:53.229Z,1.67
2018-05-02T16:05:20.814Z,1.67
2018-05-02T16:07:48.350Z,1.60
2018-05-02T16:10:15.857Z,2.10
2018-05-02T16:12:44.183Z,1.50
2018-05-02T16:15:11.706Z,2.00
2018-05-02T16:17:39.215Z,2.60
2018-05-02T16:20:06.758Z,2.17
2018-05-02T16:22:34.565Z,1.98
2018-05-02T16:25:03.582Z,2.30
2018-05-02T16:27:31.943Z,3.70
2018-05-02T16:29:59.415Z,2.45
2018-05-02T16:32:26.927Z,2.67
2018-05-02T16:34:54.577Z,3.70
2018-05-02T16:37:22.854Z,2.95
2018-05-02T16:39:51.158Z,2.22
2018-05-02T16:42:18.725Z,1.80
2018-05-02T16:44:46.249Z,1.77
2018-05-02T16:47:14.522Z,1.90
2018-05-02T16:49:42.137Z,1.98
2018-05-02T16:52:09.642Z,1.60
2018-05-02T16:54:37.946Z,2.03
2018-05-02T16:57:06.262Z,1.65
2018-05-02T16:59:33.778Z,1.60
2018-05-02T17:02:01.314Z,1.80
2018-05-02T17:04:28.901Z,1.80
2018-05-02T17:06:56.410Z,1.90
2018-05-02T17:09:23.917Z,1.60
2018-05-02T17:11:51.446Z,1.87
2018-05-02T17:14:19.003Z,1.90
2018-05-02T17:16:46.590Z,2.00
2018-05-02T17:19:14.838Z,1.70
2018-05-02T17:21:43.113Z,1.95
2018-05-02T17:24:11.482Z,1.90
2018-05-02T17:26:39.005Z,1.73
2018-05-02T17:29:06.561Z,1.90
2018-05-02T17:31:34.097Z,1.92
2018-05-02T17:34:02.399Z,2.45
2018-05-02T17:36:29.905Z,1.95
2018-05-02T17:38:58.236Z,2.10
2018-05-02T17:41:25.773Z,1.92
2018-05-02T17:43:54.048Z,2.10
2018-05-02T17:46:22.354Z,1.95
2018-05-02T17:48:50.653Z,2.20
2018-05-02T17:51:18.189Z,2.00
2018-05-02T17:53:46.490Z,2.05
2018-05-02T17:56:14.030Z,1.90
2018-05-02T17:58:42.310Z,2.10
2018-05-02T18:01:10.586Z,2.20
2018-05-02T18:03:38.938Z,1.70
2018-05-02T18:06:06.421Z,2.03
2018-05-02T18:08:34.033Z,2.50
2018-05-02T18:11:01.565Z,2.20
2018-05-02T18:13:29.877Z,1.98
2018-05-02T18:15:57.409Z,2.00
2018-05-02T18:18:25.726Z,2.25
2018-05-02T18:20:53.237Z,1.85
2018-05-02T18:23:20.746Z,2.22
2018-05-02T18:25:48.610Z,1.98
2018-05-02T18:28:16.153Z,2.30
2018-05-02T18:30:56.181Z,2.45
2018-05-02T18:33:23.918Z,2.15
2018-05-02T18:35:51.515Z,2.35
2018-05-02T18:38:19.049Z,2.10
2018-05-02T18:40:46.578Z,2.25
2018-05-02T18:43:14.879Z,2.40
2018-05-02T18:45:42.434Z,2.50
2018-05-02T18:51:01.345Z,2.58
2018-05-02T18:53:28.915Z,2.70
2018-05-02T18:55:57.619Z,2.53
2018-05-02T18:58:25.472Z,3.30
2018-05-02T19:00:53.129Z,2.58
2018-05-02T19:03:20.803Z,2.40
2018-05-02T19:05:48.391Z,2.60
2018-05-02T19:08:15.922Z,2.78
2018-05-02T19:10:44.044Z,2.45
2018-05-02T19:13:11.657Z,2.92
2018-05-02T19:15:39.997Z,2.67
2018-05-02T19:18:13.269Z,2.40
2018-05-02T19:20:42.402Z,2.40
2018-05-02T19:23:10.725Z,2.60
2018-05-02T19:25:43.960Z,2.15
2018-05-02T19:28:13.091Z,2.10
2018-05-02T19:30:40.618Z,2.15
2018-05-02T19:33:13.927Z,2.50
2018-05-02T19:35:42.280Z,2.47
2018-05-02T19:38:09.824Z,2.58
2018-05-02T19:40:44.755Z,2.33
2018-05-02T19:43:17.982Z,2.42
2018-05-02T19:45:46.339Z,2.62
2018-05-02T19:48:13.851Z,2.15
2018-05-02T19:50:57.035Z,2.40
2018-05-02T19:53:24.538Z,2.57
2018-05-02T19:55:52.812Z,2.60
2018-05-02T19:58:20.354Z,2.40
2018-05-02T20:00:53.598Z,2.43
2018-05-02T20:03:21.154Z,2.50
2018-05-02T20:05:49.452Z,2.70
2018-05-02T20:08:22.604Z,2.67
2018-05-02T20:10:56.493Z,2.58
2018-05-02T20:13:29.690Z,2.45
2018-05-02T20:15:57.193Z,2.83
2018-05-02T20:18:25.473Z,2.50
2018-05-02T20:20:53.775Z,2.37
2018-05-02T20:23:21.285Z,2.40
2018-05-02T20:25:48.791Z,2.53
2018-05-02T20:28:16.388Z,2.80
2018-05-02T20:30:43.986Z,2.53
2018-05-02T20:33:11.670Z,2.57
2018-05-02T20:35:39.229Z,2.73
2018-05-02T20:38:06.825Z,2.83
2018-05-02T20:40:34.348Z,2.30
2018-05-02T20:43:01.877Z,2.40
2018-05-02T20:45:29.381Z,2.90
2018-05-02T20:47:56.896Z,2.63
2018-05-02T20:50:24.429Z,2.63
2018-05-02T20:52:52.726Z,2.67
2018-05-02T20:55:20.292Z,2.67
2018-05-02T20:57:47.849Z,2.40
2018-05-02T21:00:15.349Z,2.60
2018-05-02T21:02:43.709Z,2.57
2018-05-02T21:05:11.242Z,2.40
2018-05-02T21:07:39.521Z,2.80
2018-05-02T21:10:07.794Z,2.50
2018-05-02T21:12:36.145Z,2.60
2018-05-02T21:15:03.658Z,2.60
2018-05-02T21:17:31.932Z,2.53
2018-05-02T21:20:00.230Z,2.40
2018-05-02T21:22:27.746Z,2.80
2018-05-02T21:24:55.257Z,2.50
2018-05-02T21:27:22.798Z,2.53
2018-05-02T21:29:51.163Z,2.80
2018-05-02T21:32:18.717Z,2.50
2018-05-02T21:34:46.254Z,2.70
2018-05-02T21:37:13.764Z,2.70
2018-05-02T21:39:42.777Z,2.60
2018-05-02T21:42:11.073Z,2.90
2018-05-02T21:44:39.356Z,3.07
2018-05-02T21:47:06.938Z,2.87
2018-05-02T21:49:35.234Z,2.60
2018-05-02T21:52:02.748Z,2.70
2018-05-02T21:54:31.022Z,2.70
2018-05-02T21:56:59.330Z,2.70
2018-05-02T21:59:27.604Z,2.60
2018-05-02T22:01:55.881Z,3.07
2018-05-02T22:04:24.229Z,3.47
2018-05-02T22:06:51.729Z,3.80
2018-05-02T22:09:20.133Z,3.40
2018-05-02T22:11:47.692Z,2.80
2018-05-02T22:14:15.226Z,3.27
2018-05-02T22:16:42.746Z,3.50
2018-05-02T22:19:10.278Z,3.10
2018-05-02T22:21:38.579Z,3.10
2018-05-02T22:24:06.097Z,3.07
2018-05-02T22:26:34.405Z,3.13
2018-05-02T22:29:02.689Z,2.83
2018-05-02T22:31:30.327Z,3.00
2018-05-02T22:33:57.855Z,3.20
2018-05-02T22:36:25.365Z,3.10
2018-05-02T22:38:53.646Z,3.43
2018-05-02T22:41:21.955Z,3.70
2018-05-02T22:43:49.474Z,3.27
2018-05-02T22:46:16.993Z,3.47
2018-05-02T22:48:44.592Z,3.60
2018-05-02T22:51:12.094Z,3.80
2018-05-02T22:53:40.365Z,3.87
2018-05-02T22:56:08.678Z,3.30
2018-05-02T22:58:36.194Z,3.20
2018-05-02T23:01:04.480Z,3.03
2018-05-02T23:03:32.801Z,3.40
2018-05-02T23:06:00.310Z,3.63
2018-05-02T23:08:27.832Z,3.07
2018-05-02T23:10:55.396Z,3.33
2018-05-02T23:13:22.910Z,3.70
2018-05-02T23:15:50.424Z,3.37
2018-05-02T23:18:17.968Z,3.33
2018-05-02T23:20:45.497Z,3.13
2018-05-02T23:23:13.773Z,3.60
2018-05-02T23:25:41.301Z,3.20
2018-05-02T23:28:08.805Z,3.30
2018-05-02T23:30:36.305Z,3.60
2018-05-02T23:33:03.957Z,3.30
2018-05-02T23:35:32.233Z,3.30
2018-05-02T23:37:59.758Z,3.40
2018-05-02T23:40:27.298Z,3.50
2018-05-02T23:42:54.858Z,3.40
2018-05-02T23:45:22.410Z,3.70
2018-05-02T23:47:50.766Z,4.30
2018-05-02T23:50:19.042Z,4.17
2018-05-02T23:52:46.547Z,3.90
2018-05-02T23:55:14.081Z,3.83
2018-05-02T23:57:41.675Z,4.43
